createdAt,value
2018-08-16T00:00:41.175Z,65.13
2018-08-16T00:03:09.962Z,65.59
2018-08-16T00:05:38.491Z,65.87
2018-08-16T00:08:07.105Z,66.48
2018-08-16T00:10:38.625Z,66.67
2018-08-16T00:13:07.237Z,65.86
2018-08-16T00:15:35.783Z,65.64
2018-08-16T00:18:04.924Z,66.18
2018-08-16T00:20:33.424Z,66.75
2018-08-16T00:23:02.101Z,67.86
2018-08-16T00:25:30.764Z,67.57
2018-08-16T00:27:59.373Z,67.58
2018-08-16T00:30:27.965Z,67.86
2018-08-16T00:32:56.577Z,67.65
2018-08-16T00:35:25.139Z,67.61
2018-08-16T00:37:53.666Z,68.02
2018-08-16T00:41:51.334Z,67.74
2018-08-16T00:44:19.899Z,68.31
2018-08-16T00:46:48.420Z,68.78
2018-08-16T00:49:17.083Z,69.17
2018-08-16T00:51:45.662Z,69.05
2018-08-16T00:54:14.242Z,69.10
2018-08-16T00:56:42.794Z,68.82
2018-08-16T00:59:11.358Z,69.07
2018-08-16T01:01:39.893Z,69.44
2018-08-16T01:04:08.505Z,69.21
2018-08-16T01:06:37.348Z,69.20
2018-08-16T01:09:08.442Z,69.72
2018-08-16T01:11:37.900Z,69.46
2018-08-16T01:14:07.381Z,69.43
2018-08-16T01:16:35.952Z,69.35
2018-08-16T01:19:04.570Z,69.20
2018-08-16T01:21:33.110Z,68.78
2018-08-16T01:24:01.699Z,68.36
2018-08-16T01:26:30.287Z,68.11
2018-08-16T01:28:58.856Z,67.09
2018-08-16T01:31:27.438Z,67.26
2018-08-16T01:33:56.058Z,67.85
2018-08-16T01:36:24.610Z,67.93
2018-08-16T01:38:53.194Z,67.85
2018-08-16T01:41:21.802Z,68.75
2018-08-16T01:43:50.389Z,70.06
2018-08-16T01:46:19.009Z,70.99
2018-08-16T01:48:47.608Z,73.23
2018-08-16T01:51:16.150Z,74.29
2018-08-16T01:53:44.777Z,74.44
2018-08-16T01:56:13.330Z,74.07
2018-08-16T01:58:41.870Z,73.29
2018-08-16T02:01:10.454Z,72.82
2018-08-16T02:03:39.065Z,73.11
2018-08-16T02:06:07.644Z,72.81
2018-08-16T02:08:36.253Z,72.68
2018-08-16T02:11:04.851Z,72.01
2018-08-16T02:13:33.485Z,72.12
2018-08-16T02:16:02.031Z,71.95
2018-08-16T02:18:30.741Z,72.13
2018-08-16T02:20:59.269Z,72.17
2018-08-16T02:23:27.899Z,72.17
2018-08-16T02:25:56.861Z,72.33
2018-08-16T02:28:25.838Z,72.15
2018-08-16T02:30:54.385Z,72.70
2018-08-16T02:33:22.958Z,72.79
2018-08-16T02:35:51.550Z,72.31
2018-08-16T02:38:20.074Z,72.69
2018-08-16T02:40:48.646Z,72.43
2018-08-16T02:43:17.241Z,72.00
2018-08-16T02:45:45.811Z,71.92
2018-08-16T02:48:14.377Z,72.40
2018-08-16T02:50:42.982Z,72.77
2018-08-16T02:53:11.529Z,72.65
2018-08-16T02:55:40.053Z,72.91
2018-08-16T02:58:08.686Z,73.30
2018-08-16T03:00:37.284Z,73.55
2018-08-16T03:03:05.890Z,73.65
2018-08-16T03:05:34.459Z,73.88
2018-08-16T03:08:02.943Z,73.83
2018-08-16T03:10:31.481Z,73.95
2018-08-16T03:13:00.018Z,73.85
2018-08-16T03:15:28.550Z,73.83
2018-08-16T03:17:57.117Z,73.86
2018-08-16T03:20:25.649Z,73.62
2018-08-16T03:22:54.150Z,73.67
2018-08-16T03:25:22.706Z,74.05
2018-08-16T03:27:51.237Z,73.80
2018-08-16T03:30:19.800Z,73.91
2018-08-16T03:32:48.342Z,73.51
2018-08-16T03:35:17.046Z,73.82
2018-08-16T03:37:45.528Z,73.55
2018-08-16T03:40:14.218Z,72.95
2018-08-16T03:42:42.801Z,73.77
2018-08-16T03:45:11.370Z,73.97
2018-08-16T03:47:43.599Z,74.31
2018-08-16T03:50:12.166Z,74.32
2018-08-16T03:52:40.733Z,73.64
2018-08-16T03:55:09.314Z,74.27
2018-08-16T03:57:37.810Z,74.05
2018-08-16T04:00:07.141Z,74.02
2018-08-16T04:02:36.295Z,74.29
2018-08-16T04:05:05.101Z,74.71
2018-08-16T04:07:33.670Z,74.18
2018-08-16T04:10:02.675Z,75.18
2018-08-16T04:12:31.228Z,74.22
2018-08-16T04:14:59.833Z,73.38
2018-08-16T04:17:34.065Z,73.37
2018-08-16T04:20:02.878Z,73.07
2018-08-16T04:22:31.382Z,73.27
2018-08-16T04:24:59.946Z,72.94
2018-08-16T04:27:28.711Z,73.12
2018-08-16T04:29:57.705Z,72.77
2018-08-16T04:32:26.594Z,72.77
2018-08-16T04:34:55.198Z,72.36
2018-08-16T04:37:23.792Z,72.87
2018-08-16T04:39:52.353Z,72.28
2018-08-16T04:42:20.947Z,72.75
2018-08-16T04:44:49.493Z,72.23
2018-08-16T04:47:18.074Z,71.89
2018-08-16T04:49:46.767Z,72.15
2018-08-16T04:52:15.290Z,71.53
2018-08-16T04:54:43.833Z,71.58
2018-08-16T04:57:12.363Z,70.97
2018-08-16T04:59:41.155Z,70.66
2018-08-16T05:02:09.790Z,70.87
2018-08-16T05:04:38.350Z,70.84
2018-08-16T05:07:06.965Z,70.59
2018-08-16T05:09:35.490Z,70.56
2018-08-16T05:12:04.113Z,70.39
2018-08-16T05:14:32.675Z,69.65
2018-08-16T05:17:01.269Z,69.34
2018-08-16T05:19:29.780Z,68.92
2018-08-16T05:21:58.331Z,68.11
2018-08-16T05:24:26.926Z,67.88
2018-08-16T05:26:55.496Z,67.35
2018-08-16T05:29:24.062Z,66.98
2018-08-16T05:31:52.721Z,66.45
2018-08-16T05:34:21.249Z,66.26
2018-08-16T05:36:49.785Z,66.18
2018-08-16T05:39:18.301Z,66.00
2018-08-16T05:41:46.858Z,66.38
2018-08-16T05:44:15.393Z,66.90
2018-08-16T05:46:43.949Z,66.55
2018-08-16T05:49:12.526Z,66.59
2018-08-16T05:51:41.130Z,65.58
2018-08-16T05:54:09.747Z,64.54
2018-08-16T05:56:38.960Z,64.76
2018-08-16T05:59:10.474Z,64.28
2018-08-16T06:01:39.042Z,63.87
2018-08-16T06:04:07.614Z,64.04
2018-08-16T06:06:36.247Z,64.34
2018-08-16T06:09:07.842Z,65.13
2018-08-16T06:11:36.428Z,64.17
2018-08-16T06:14:06.289Z,64.02
2018-08-16T06:16:34.852Z,64.61
2018-08-16T06:19:03.373Z,64.23
2018-08-16T06:21:31.935Z,63.14
2018-08-16T06:24:00.503Z,62.80
2018-08-16T06:26:29.138Z,61.94
2018-08-16T06:28:57.661Z,61.92
2018-08-16T06:31:26.290Z,61.45
2018-08-16T06:33:54.829Z,61.64
2018-08-16T06:36:23.392Z,59.95
2018-08-16T06:38:51.953Z,59.55
2018-08-16T06:41:20.631Z,59.62
2018-08-16T06:43:49.210Z,59.45
2018-08-16T06:46:17.810Z,60.00
2018-08-16T06:48:46.310Z,59.54
2018-08-16T06:51:14.877Z,60.38
2018-08-16T06:53:43.373Z,60.60
2018-08-16T06:56:12.125Z,60.39
2018-08-16T06:58:40.655Z,60.13
2018-08-16T07:01:09.325Z,59.18
2018-08-16T07:03:37.889Z,59.33
2018-08-16T07:06:06.544Z,57.72
2018-08-16T07:08:35.141Z,57.28
2018-08-16T07:11:04.118Z,56.18
2018-08-16T07:13:32.693Z,55.18
2018-08-16T07:16:06.107Z,55.59
2018-08-16T07:21:27.666Z,55.88
2018-08-16T07:23:56.157Z,54.93
2018-08-16T07:26:26.754Z,54.05
2018-08-16T07:29:19.155Z,52.12
2018-08-16T07:34:42.871Z,43.60
2018-08-16T07:37:11.412Z,40.80
2018-08-16T07:39:40.562Z,36.29
2018-08-16T07:42:09.716Z,32.66
2018-08-16T07:44:38.969Z,29.26
2018-08-16T07:47:07.518Z,27.25
2018-08-16T07:49:36.668Z,26.67
2018-08-16T07:52:06.659Z,27.63
2018-08-16T07:54:36.386Z,28.22
2018-08-16T07:57:05.048Z,28.74
2018-08-16T07:59:33.709Z,32.71
2018-08-16T08:02:02.994Z,29.79
2018-08-16T08:04:31.461Z,28.41
2018-08-16T08:06:59.952Z,28.03
2018-08-16T08:09:28.610Z,28.94
2018-08-16T08:11:57.890Z,29.36
2018-08-16T08:17:19.666Z,25.78
2018-08-16T08:19:53.715Z,24.64
2018-08-16T08:22:22.242Z,27.30
2018-08-16T08:24:54.142Z,26.80
2018-08-16T08:27:22.657Z,25.85
2018-08-16T08:29:51.137Z,23.96
2018-08-16T08:32:19.653Z,23.93
2018-08-16T08:34:48.315Z,21.76
2018-08-16T08:40:09.635Z,25.50
2018-08-16T08:42:38.199Z,26.33
2018-08-16T08:45:06.999Z,25.23
2018-08-16T08:47:40.756Z,23.25
2018-08-16T08:50:10.770Z,24.78
2018-08-16T08:52:39.428Z,23.54
2018-08-16T08:55:19.285Z,22.53
2018-08-16T08:58:58.782Z,24.12
2018-08-16T09:01:29.048Z,23.13
2018-08-16T09:03:57.560Z,22.74
2018-08-16T09:06:26.319Z,25.41
2018-08-16T09:08:54.825Z,24.24
2018-08-16T09:11:34.573Z,22.35
2018-08-16T09:14:14.413Z,20.97
2018-08-16T09:16:42.958Z,20.92
2018-08-16T09:22:05.069Z,21.14
2018-08-16T09:24:33.594Z,21.18
2018-08-16T09:30:18.049Z,22.04
2018-08-16T09:32:57.695Z,19.28
2018-08-16T09:35:28.090Z,20.00
2018-08-16T09:37:57.967Z,23.59
2018-08-16T09:40:27.158Z,23.32
2018-08-16T09:42:59.774Z,21.10
2018-08-16T09:46:41.250Z,22.14
2018-08-16T09:49:10.166Z,21.62
2018-08-16T09:51:39.508Z,21.27
2018-08-16T09:54:08.398Z,22.02
2018-08-16T09:56:36.933Z,21.05
2018-08-16T09:59:06.169Z,19.68
2018-08-16T10:01:34.711Z,18.67
2018-08-16T10:04:03.722Z,18.55
2018-08-16T10:06:33.431Z,19.19
2018-08-16T10:09:01.925Z,20.60
2018-08-16T10:11:30.456Z,19.44
2018-08-16T10:13:59.484Z,18.74
2018-08-16T10:16:28.198Z,17.59
2018-08-16T10:18:56.693Z,17.31
2018-08-16T10:21:25.196Z,18.97
2018-08-16T10:23:53.681Z,17.26
2018-08-16T10:26:22.181Z,18.02
2018-08-16T10:28:50.661Z,17.12
2018-08-16T10:31:19.157Z,17.03
2018-08-16T10:33:47.683Z,18.37
2018-08-16T10:36:16.228Z,17.92
2018-08-16T10:38:44.701Z,15.36
2018-08-16T10:41:13.197Z,16.30
2018-08-16T10:43:41.665Z,17.02
2018-08-16T10:46:10.237Z,15.11
2018-08-16T10:48:38.726Z,14.69
2018-08-16T10:51:07.330Z,14.21
2018-08-16T10:53:35.841Z,15.09
2018-08-16T10:56:04.452Z,14.12
2018-08-16T10:58:32.966Z,15.55
2018-08-16T11:01:01.453Z,15.06
2018-08-16T11:03:29.972Z,14.51
2018-08-16T11:05:58.509Z,17.73
2018-08-16T11:08:26.980Z,19.29
2018-08-16T11:10:55.506Z,18.66
2018-08-16T11:13:23.980Z,16.95
2018-08-16T11:15:52.501Z,16.88
2018-08-16T11:18:20.973Z,19.95
2018-08-16T11:20:49.468Z,19.80
2018-08-16T11:23:17.952Z,17.30
2018-08-16T11:25:46.466Z,14.45
2018-08-16T11:28:14.929Z,14.18
2018-08-16T11:30:43.457Z,15.13
2018-08-16T11:33:11.952Z,17.09
2018-08-16T11:35:40.521Z,16.90
2018-08-16T11:38:12.559Z,18.55
2018-08-16T11:40:42.902Z,17.56
2018-08-16T11:43:11.292Z,17.19
2018-08-16T11:45:47.115Z,17.59
2018-08-16T11:48:15.590Z,17.17
2018-08-16T11:50:44.204Z,17.00
2018-08-16T11:53:12.690Z,18.17
2018-08-16T11:55:41.219Z,18.55
2018-08-16T11:58:09.690Z,18.68
2018-08-16T12:00:38.237Z,18.60
2018-08-16T12:03:06.792Z,19.24
2018-08-16T12:05:35.297Z,17.83
2018-08-16T12:08:03.830Z,16.96
2018-08-16T12:10:32.305Z,16.54
2018-08-16T12:13:00.827Z,16.41
2018-08-16T12:15:30.305Z,16.97
2018-08-16T12:17:58.811Z,16.97
2018-08-16T12:23:29.349Z,18.91
2018-08-16T12:25:57.910Z,20.72
2018-08-16T12:28:26.367Z,21.29
2018-08-16T12:30:54.859Z,20.12
2018-08-16T12:33:23.354Z,18.27
2018-08-16T12:35:51.856Z,17.73
2018-08-16T12:38:20.330Z,18.85
2018-08-16T12:40:50.198Z,20.49
2018-08-16T12:43:17.747Z,19.98
2018-08-16T12:45:46.185Z,18.70
2018-08-16T12:48:14.666Z,19.78
2018-08-16T12:50:43.153Z,21.84
2018-08-16T12:53:11.949Z,22.61
2018-08-16T12:55:43.618Z,22.03
2018-08-16T12:58:12.131Z,22.74
2018-08-16T13:00:40.982Z,21.73
2018-08-16T13:03:12.079Z,21.18
2018-08-16T13:05:40.567Z,19.91
2018-08-16T13:08:09.710Z,18.92
2018-08-16T13:10:40.105Z,17.99
2018-08-16T13:13:08.664Z,16.96
2018-08-16T13:15:40.895Z,19.20
2018-08-16T13:18:09.558Z,21.81
2018-08-16T13:20:38.075Z,20.90
2018-08-16T13:23:06.659Z,19.37
2018-08-16T13:25:35.142Z,18.96
2018-08-16T13:28:03.671Z,19.79
2018-08-16T13:30:32.090Z,20.18
2018-08-16T13:33:00.594Z,21.28
2018-08-16T13:35:29.039Z,21.43
2018-08-16T13:37:57.554Z,21.24
2018-08-16T13:40:26.018Z,22.26
2018-08-16T13:42:54.523Z,21.06
2018-08-16T13:45:23.036Z,21.13
2018-08-16T13:47:51.515Z,20.88
2018-08-16T13:50:19.996Z,21.29
2018-08-16T13:52:49.549Z,20.65
2018-08-16T13:55:18.429Z,20.60
2018-08-16T13:57:46.930Z,19.94
2018-08-16T14:00:15.468Z,18.24
2018-08-16T14:02:44.066Z,18.59
2018-08-16T14:05:12.554Z,18.28
2018-08-16T14:07:41.282Z,18.38
2018-08-16T14:10:09.843Z,20.34
2018-08-16T14:12:38.367Z,21.60
2018-08-16T14:15:07.626Z,21.45
2018-08-16T14:17:36.134Z,21.71
2018-08-16T14:20:05.365Z,21.35
2018-08-16T14:22:33.897Z,21.63
2018-08-16T14:25:02.418Z,20.98
2018-08-16T14:27:30.895Z,20.08
2018-08-16T14:29:59.398Z,21.17
2018-08-16T14:32:27.934Z,20.78
2018-08-16T14:34:56.387Z,21.08
2018-08-16T14:37:24.852Z,21.65
2018-08-16T14:39:53.370Z,22.38
2018-08-16T14:42:22.147Z,22.47
2018-08-16T14:44:50.688Z,22.77
2018-08-16T14:47:19.157Z,22.24
2018-08-16T14:49:48.197Z,21.43
2018-08-16T14:52:16.699Z,22.65
2018-08-16T14:57:35.650Z,23.75
2018-08-16T15:00:04.353Z,23.50
2018-08-16T15:02:32.846Z,24.28
2018-08-16T15:05:01.314Z,23.63
2018-08-16T15:07:29.762Z,22.44
2018-08-16T15:09:58.298Z,22.09
2018-08-16T15:12:26.766Z,22.79
2018-08-16T15:14:55.266Z,23.58
2018-08-16T15:17:23.794Z,23.61
2018-08-16T15:19:52.309Z,23.46
2018-08-16T15:22:20.793Z,24.54
2018-08-16T15:24:49.313Z,25.44
2018-08-16T15:27:17.802Z,25.19
2018-08-16T15:29:46.292Z,24.88
2018-08-16T15:32:14.837Z,24.83
2018-08-16T15:34:43.324Z,24.33
2018-08-16T15:37:11.818Z,25.17
2018-08-16T15:39:40.321Z,24.45
2018-08-16T15:42:08.813Z,24.44
2018-08-16T15:44:37.318Z,24.99
2018-08-16T15:47:05.861Z,25.63
2018-08-16T15:49:34.368Z,25.78
2018-08-16T15:52:02.849Z,25.97
2018-08-16T15:54:31.337Z,24.98
2018-08-16T15:56:59.800Z,23.83
2018-08-16T15:59:28.283Z,23.04
2018-08-16T16:01:56.762Z,23.34
2018-08-16T16:04:25.262Z,25.93
2018-08-16T16:06:53.760Z,24.71
2018-08-16T16:09:22.267Z,23.30
2018-08-16T16:11:50.714Z,23.34
2018-08-16T16:14:19.202Z,23.13
2018-08-16T16:16:47.682Z,23.58
2018-08-16T16:19:16.193Z,24.25
2018-08-16T16:21:44.661Z,24.37
2018-08-16T16:24:13.158Z,25.24
2018-08-16T16:26:41.626Z,25.06
2018-08-16T16:29:10.144Z,24.75
2018-08-16T16:31:38.621Z,25.54
2018-08-16T16:34:07.815Z,25.55
2018-08-16T16:36:36.274Z,25.44
2018-08-16T16:39:08.429Z,25.21
2018-08-16T16:41:37.578Z,25.10
2018-08-16T16:44:06.162Z,24.27
2018-08-16T16:46:35.503Z,25.27
2018-08-16T16:49:04.077Z,25.58
2018-08-16T16:51:32.631Z,26.56
2018-08-16T16:54:01.166Z,26.94
2018-08-16T16:56:29.710Z,26.57
2018-08-16T16:58:58.264Z,27.49
2018-08-16T17:01:26.783Z,27.19
2018-08-16T17:03:56.320Z,26.78
2018-08-16T17:06:24.866Z,28.09
2018-08-16T17:08:53.394Z,27.63
2018-08-16T17:11:21.946Z,27.97
2018-08-16T17:13:50.453Z,27.10
2018-08-16T17:16:19.023Z,27.90
2018-08-16T17:18:47.551Z,27.46
2018-08-16T17:21:16.068Z,27.98
2018-08-16T17:23:44.573Z,28.04
2018-08-16T17:26:13.147Z,27.14
2018-08-16T17:28:41.663Z,28.25
2018-08-16T17:31:10.189Z,28.51
2018-08-16T17:36:31.565Z,28.52
2018-08-16T17:39:00.123Z,28.61
2018-08-16T17:41:28.682Z,29.54
2018-08-16T17:43:57.259Z,30.65
2018-08-16T17:46:25.778Z,31.06
2018-08-16T17:48:55.137Z,31.57
2018-08-16T17:51:24.248Z,32.79
2018-08-16T17:53:52.935Z,33.21
2018-08-16T17:56:21.464Z,34.80
2018-08-16T17:58:49.980Z,35.01
2018-08-16T18:01:18.514Z,35.38
2018-08-16T18:05:11.388Z,35.17
2018-08-16T18:07:39.925Z,35.87
2018-08-16T18:10:09.274Z,36.94
2018-08-16T18:12:38.111Z,37.14
2018-08-16T18:15:09.245Z,37.16
2018-08-16T18:17:37.706Z,37.44
2018-08-16T18:20:06.340Z,38.41
2018-08-16T18:22:35.120Z,38.21
2018-08-16T18:25:03.785Z,39.02
2018-08-16T18:27:32.266Z,39.36
2018-08-16T18:30:00.845Z,39.34
2018-08-16T18:32:30.657Z,39.90
2018-08-16T18:34:59.217Z,40.02
2018-08-16T18:37:27.733Z,41.61
2018-08-16T18:39:56.587Z,41.77
2018-08-16T18:42:25.230Z,43.35
2018-08-16T18:44:53.811Z,44.36
2018-08-16T18:47:22.354Z,42.99
2018-08-16T18:49:50.817Z,43.17
2018-08-16T18:52:19.339Z,43.78
2018-08-16T18:54:47.821Z,44.71
2018-08-16T18:57:16.415Z,45.45
2018-08-16T18:59:44.918Z,45.89
2018-08-16T19:02:13.644Z,46.01
2018-08-16T19:04:42.198Z,46.49
2018-08-16T19:07:10.858Z,46.96
2018-08-16T19:09:39.641Z,46.95
2018-08-16T19:12:09.376Z,47.79
2018-08-16T19:14:41.756Z,48.63
2018-08-16T19:17:10.902Z,49.30
2018-08-16T19:19:40.523Z,49.99
2018-08-16T19:22:09.134Z,50.67
2018-08-16T19:24:37.965Z,51.40
2018-08-16T19:27:06.820Z,52.23
2018-08-16T19:29:35.413Z,52.69
2018-08-16T19:32:03.986Z,53.53
2018-08-16T19:34:32.508Z,53.74
2018-08-16T19:37:01.131Z,54.33
2018-08-16T19:39:29.681Z,54.36
2018-08-16T19:41:58.585Z,54.25
2018-08-16T19:44:27.138Z,54.35
2018-08-16T19:46:55.704Z,54.65
2018-08-16T19:49:24.288Z,54.93
2018-08-16T19:51:53.697Z,55.41
2018-08-16T19:54:22.438Z,54.25
2018-08-16T19:56:54.026Z,53.64
2018-08-16T19:59:22.550Z,53.66
2018-08-16T20:01:51.090Z,53.56
2018-08-16T20:04:19.590Z,54.15
2018-08-16T20:06:48.130Z,54.05
2018-08-16T20:09:16.673Z,53.80
2018-08-16T20:11:45.239Z,53.33
2018-08-16T20:14:13.731Z,53.30
2018-08-16T20:16:42.245Z,53.83
2018-08-16T20:19:10.735Z,54.92
2018-08-16T20:21:39.283Z,54.17
2018-08-16T20:24:11.491Z,54.45
2018-08-16T20:26:40.095Z,54.89
2018-08-16T20:29:08.685Z,55.42
2018-08-16T20:31:37.257Z,55.59
2018-08-16T20:34:05.813Z,56.70
2018-08-16T20:36:34.388Z,56.15
2018-08-16T20:39:02.970Z,55.69
2018-08-16T20:41:31.876Z,55.42
2018-08-16T20:44:00.409Z,56.24
2018-08-16T20:46:28.974Z,57.15
2018-08-16T20:48:57.545Z,57.01
2018-08-16T20:51:26.055Z,57.37
2018-08-16T20:53:54.605Z,57.36
2018-08-16T20:56:23.133Z,57.02
2018-08-16T20:58:51.674Z,57.23
2018-08-16T21:01:20.182Z,57.52
2018-08-16T21:03:48.702Z,56.84
2018-08-16T21:06:17.210Z,56.68
2018-08-16T21:08:45.746Z,56.70
2018-08-16T21:11:14.211Z,56.03
2018-08-16T21:13:42.723Z,56.70
2018-08-16T21:16:11.218Z,56.79
2018-08-16T21:18:39.727Z,57.24
2018-08-16T21:21:08.196Z,57.68
2018-08-16T21:23:36.694Z,57.63
2018-08-16T21:26:05.205Z,57.99
2018-08-16T21:28:33.698Z,57.96
2018-08-16T21:31:02.281Z,58.15
2018-08-16T21:33:30.797Z,58.01
2018-08-16T21:35:59.249Z,57.99
2018-08-16T21:38:27.822Z,58.72
2018-08-16T21:40:56.343Z,58.23
2018-08-16T21:43:24.882Z,58.95
2018-08-16T21:45:53.364Z,59.25
2018-08-16T21:48:21.878Z,59.43
2018-08-16T21:50:50.407Z,59.52
2018-08-16T21:53:18.913Z,59.66
2018-08-16T21:55:47.443Z,59.91
2018-08-16T21:58:15.960Z,59.41
2018-08-16T22:00:51.567Z,60.20
2018-08-16T22:03:21.171Z,60.67
2018-08-16T22:06:00.036Z,60.22
2018-08-16T22:08:50.242Z,60.53
2018-08-16T22:11:18.955Z,60.67
2018-08-16T22:13:47.491Z,61.20
2018-08-16T22:16:16.038Z,61.08
2018-08-16T22:18:44.626Z,61.45
2018-08-16T22:21:13.108Z,61.60
2018-08-16T22:23:41.622Z,61.65
2018-08-16T22:26:10.184Z,61.36
2018-08-16T22:28:38.634Z,61.83
2018-08-16T22:31:07.264Z,61.57
2018-08-16T22:33:35.782Z,61.63
2018-08-16T22:36:04.304Z,61.67
2018-08-16T22:38:32.819Z,61.69
2018-08-16T22:41:01.353Z,61.95
2018-08-16T22:43:29.857Z,61.85
2018-08-16T22:45:58.365Z,61.99
2018-08-16T22:48:26.848Z,62.12
2018-08-16T22:50:55.322Z,62.03
2018-08-16T22:53:23.837Z,62.92
2018-08-16T22:55:52.288Z,62.62
2018-08-16T22:58:20.865Z,62.99
2018-08-16T23:00:49.428Z,62.88
2018-08-16T23:03:17.990Z,63.47
2018-08-16T23:05:46.473Z,63.64
2018-08-16T23:08:14.961Z,63.70
2018-08-16T23:10:43.501Z,63.86
2018-08-16T23:13:12.010Z,63.25
2018-08-16T23:15:40.566Z,63.69
2018-08-16T23:18:09.169Z,63.42
2018-08-16T23:20:37.746Z,64.09
2018-08-16T23:23:06.476Z,64.07
2018-08-16T23:25:34.982Z,64.05
2018-08-16T23:28:04.013Z,64.51
2018-08-16T23:30:32.556Z,64.72
2018-08-16T23:33:01.053Z,64.63
2018-08-16T23:35:29.654Z,64.05
2018-08-16T23:37:58.187Z,64.80
2018-08-16T23:40:26.773Z,65.30
2018-08-16T23:42:55.270Z,65.05
2018-08-16T23:45:23.802Z,65.26
2018-08-16T23:48:03.480Z,65.23
2018-08-16T23:50:32.032Z,65.43
2018-08-16T23:53:00.513Z,65.14
2018-08-16T23:55:29.062Z,65.89
2018-08-16T23:57:57.608Z,65.76
